sensor_id;sensor_type;location;lat;lon;timestamp;pressure;altitude;pressure_sealevel;temperature;humidity
28797;BME280;24974;54.444;18.560;2023-04-28T00:00:43;101610.84;;;7.04;51.62
28797;BME280;24974;54.444;18.560;2023-04-28T00:03:14;101607.16;;;7.25;51.31
28797;BME280;24974;54.444;18.560;2023-04-28T00:05:45;101612.31;;;6.80;52.15
28797;BME280;24974;54.444;18.560;2023-04-28T00:08:16;101606.78;;;7.12;51.56
28797;BME280;24974;54.444;18.560;2023-04-28T00:10:47;101612.00;;;7.13;51.69
28797;BME280;24974;54.444;18.560;2023-04-28T00:13:18;101617.31;;;6.56;52.72
28797;BME280;24974;54.444;18.560;2023-04-28T00:15:49;101618.88;;;6.79;52.44
28797;BME280;24974;54.444;18.560;2023-04-28T00:18:22;101626.31;;;6.56;52.89
28797;BME280;24974;54.444;18.560;2023-04-28T00:20:54;101623.78;;;6.44;53.02
28797;BME280;24974;54.444;18.560;2023-04-28T00:23:25;101616.88;;;6.69;52.41
28797;BME280;24974;54.444;18.560;2023-04-28T00:25:56;101615.16;;;6.58;52.69
28797;BME280;24974;54.444;18.560;2023-04-28T00:28:27;101615.16;;;6.58;52.37
28797;BME280;24974;54.444;18.560;2023-04-28T00:30:57;101625.75;;;6.54;52.50
28797;BME280;24974;54.444;18.560;2023-04-28T00:33:28;101624.19;;;6.63;52.08
28797;BME280;24974;54.444;18.560;2023-04-28T00:36:00;101623.28;;;6.53;52.40
28797;BME280;24974;54.444;18.560;2023-04-28T00:38:31;101615.38;;;6.51;52.76
28797;BME280;24974;54.444;18.560;2023-04-28T00:41:02;101624.19;;;6.31;53.15
28797;BME280;24974;54.444;18.560;2023-04-28T00:43:46;101635.56;;;6.50;52.74
28797;BME280;24974;54.444;18.560;2023-04-28T00:46:29;101629.41;;;6.65;52.20
28797;BME280;24974;54.444;18.560;2023-04-28T00:49:00;101628.97;;;6.46;52.43
28797;BME280;24974;54.444;18.560;2023-04-28T00:51:33;101620.84;;;6.56;52.31
28797;BME280;24974;54.444;18.560;2023-04-28T00:54:05;101615.88;;;6.48;52.77
28797;BME280;24974;54.444;18.560;2023-04-28T04:28:45;101651.88;;;7.09;55.12
28797;BME280;24974;54.444;18.560;2023-04-28T04:31:15;101660.47;;;7.23;54.58
28797;BME280;24974;54.444;18.560;2023-04-28T04:33:49;101659.94;;;7.26;54.20
28797;BME280;24974;54.444;18.560;2023-04-28T04:36:23;101664.00;;;7.66;53.68
28797;BME280;24974;54.444;18.560;2023-04-28T04:38:54;101668.78;;;7.38;54.28
28797;BME280;24974;54.444;18.560;2023-04-28T04:41:26;101658.97;;;7.52;53.96
28797;BME280;24974;54.444;18.560;2023-04-28T04:44:10;101661.28;;;7.71;53.35
28797;BME280;24974;54.444;18.560;2023-04-28T04:46:46;101673.44;;;7.43;53.61
28797;BME280;24974;54.444;18.560;2023-04-28T04:49:21;101665.19;;;7.38;54.39
28797;BME280;24974;54.444;18.560;2023-04-28T04:51:52;101672.06;;;7.45;54.40
28797;BME280;24974;54.444;18.560;2023-04-28T04:54:23;101664.31;;;7.74;53.48
28797;BME280;24974;54.444;18.560;2023-04-28T04:56:54;101669.06;;;7.99;52.88
28797;BME280;24974;54.444;18.560;2023-04-28T04:59:40;101669.09;;;8.04;52.78
28797;BME280;24974;54.444;18.560;2023-04-28T05:02:15;101672.38;;;8.06;53.04
28797;BME280;24974;54.444;18.560;2023-04-28T05:04:46;101667.09;;;7.90;53.23
28797;BME280;24974;54.444;18.560;2023-04-28T05:07:19;101672.16;;;8.28;52.78
28797;BME280;24974;54.444;18.560;2023-04-28T05:09:50;101673.31;;;8.48;52.46
28797;BME280;24974;54.444;18.560;2023-04-28T05:12:21;101669.78;;;8.52;52.19
28797;BME280;24974;54.444;18.560;2023-04-28T05:14:52;101667.59;;;8.64;52.34
28797;BME280;24974;54.444;18.560;2023-04-28T05:17:25;101671.69;;;8.36;52.84
28797;BME280;24974;54.444;18.560;2023-04-28T05:19:56;101670.63;;;8.63;52.43
28797;BME280;24974;54.444;18.560;2023-04-28T05:22:27;101671.72;;;8.77;51.87
28797;BME280;24974;54.444;18.560;2023-04-28T05:25:00;101676.09;;;8.68;52.51
28797;BME280;24974;54.444;18.560;2023-04-28T05:27:31;101673.09;;;9.00;51.86
28797;BME280;24974;54.444;18.560;2023-04-28T05:30:04;101675.19;;;9.59;50.75
28797;BME280;24974;54.444;18.560;2023-04-28T05:32:36;101680.50;;;8.94;51.92
28797;BME280;24974;54.444;18.560;2023-04-28T05:35:07;101677.41;;;9.52;50.75
28797;BME280;24974;54.444;18.560;2023-04-28T05:37:38;101674.19;;;9.14;51.51
28797;BME280;24974;54.444;18.560;2023-04-28T05:40:09;101680.34;;;9.76;49.99
28797;BME280;24974;54.444;18.560;2023-04-28T05:42:40;101681.69;;;9.89;50.37
28797;BME280;24974;54.444;18.560;2023-04-28T05:45:11;101680.94;;;9.73;50.31
28797;BME280;24974;54.444;18.560;2023-04-28T05:47:43;101674.75;;;10.01;50.10
28797;BME280;24974;54.444;18.560;2023-04-28T05:50:14;101685.34;;;9.64;50.61
28797;BME280;24974;54.444;18.560;2023-04-28T05:52:47;101683.63;;;9.78;50.54
28797;BME280;24974;54.444;18.560;2023-04-28T05:55:18;101685.44;;;10.13;49.65
28797;BME280;24974;54.444;18.560;2023-04-28T05:57:48;101674.16;;;10.20;49.09
28797;BME280;24974;54.444;18.560;2023-04-28T06:00:20;101677.09;;;10.33;48.93
28797;BME280;24974;54.444;18.560;2023-04-28T06:02:52;101684.97;;;10.50;48.60
28797;BME280;24974;54.444;18.560;2023-04-28T06:05:23;101676.81;;;10.79;48.19
28797;BME280;24974;54.444;18.560;2023-04-28T06:07:56;101684.44;;;10.48;48.27
28797;BME280;24974;54.444;18.560;2023-04-28T06:10:27;101680.84;;;10.92;47.69
28797;BME280;24974;54.444;18.560;2023-04-28T06:12:57;101682.59;;;10.78;47.81
28797;BME280;24974;54.444;18.560;2023-04-28T06:15:29;101685.03;;;11.13;46.72
28797;BME280;24974;54.444;18.560;2023-04-28T06:18:00;101688.00;;;10.88;47.33
28797;BME280;24974;54.444;18.560;2023-04-28T06:20:30;101686.91;;;11.23;46.86
28797;BME280;24974;54.444;18.560;2023-04-28T06:23:01;101690.38;;;11.34;46.27
28797;BME280;24974;54.444;18.560;2023-04-28T06:25:32;101682.66;;;11.89;44.86
28797;BME280;24974;54.444;18.560;2023-04-28T06:28:03;101681.56;;;12.09;44.51
28797;BME280;24974;54.444;18.560;2023-04-28T06:30:35;101685.59;;;12.35;43.15
28797;BME280;24974;54.444;18.560;2023-04-28T06:33:07;101682.78;;;11.49;44.23
28797;BME280;24974;54.444;18.560;2023-04-28T06:35:38;101677.72;;;11.33;44.75
28797;BME280;24974;54.444;18.560;2023-04-28T06:38:09;101676.50;;;11.68;43.78
28797;BME280;24974;54.444;18.560;2023-04-28T06:40:40;101675.03;;;12.23;42.03
28797;BME280;24974;54.444;18.560;2023-04-28T06:43:12;101673.53;;;12.50;41.86
28797;BME280;24974;54.444;18.560;2023-04-28T06:45:48;101675.22;;;11.60;43.33
28797;BME280;24974;54.444;18.560;2023-04-28T06:48:19;101671.19;;;12.00;41.85
28797;BME280;24974;54.444;18.560;2023-04-28T06:50:50;101671.16;;;11.82;41.75
28797;BME280;24974;54.444;18.560;2023-04-28T06:53:21;101664.31;;;12.22;41.16
28797;BME280;24974;54.444;18.560;2023-04-28T06:55:52;101680.97;;;11.40;41.06
28797;BME280;24974;54.444;18.560;2023-04-28T06:58:24;101676.75;;;12.19;40.36
28797;BME280;24974;54.444;18.560;2023-04-28T07:00:55;101673.16;;;12.19;40.03
28797;BME280;24974;54.444;18.560;2023-04-28T07:03:26;101669.94;;;12.87;38.97
28797;BME280;24974;54.444;18.560;2023-04-28T07:05:57;101672.75;;;13.33;37.73
28797;BME280;24974;54.444;18.560;2023-04-28T07:08:28;101665.59;;;12.29;39.04
28797;BME280;24974;54.444;18.560;2023-04-28T07:11:00;101662.81;;;12.29;38.99
28797;BME280;24974;54.444;18.560;2023-04-28T07:13:34;101661.41;;;12.13;38.06
28797;BME280;24974;54.444;18.560;2023-04-28T07:16:05;101661.28;;;11.99;38.71
28797;BME280;24974;54.444;18.560;2023-04-28T07:18:36;101661.00;;;12.01;38.31
28797;BME280;24974;54.444;18.560;2023-04-28T07:21:07;101674.03;;;11.95;38.63
28797;BME280;24974;54.444;18.560;2023-04-28T07:23:40;101671.38;;;12.66;37.63
28797;BME280;24974;54.444;18.560;2023-04-28T07:26:11;101663.41;;;12.26;36.73
28797;BME280;24974;54.444;18.560;2023-04-28T07:28:46;101671.34;;;12.09;37.92
28797;BME280;24974;54.444;18.560;2023-04-28T07:31:17;101661.47;;;12.27;37.36
28797;BME280;24974;54.444;18.560;2023-04-28T07:33:48;101660.28;;;12.14;38.09
28797;BME280;24974;54.444;18.560;2023-04-28T07:36:18;101663.28;;;11.94;38.53
28797;BME280;24974;54.444;18.560;2023-04-28T07:38:49;101665.97;;;11.22;39.23
28797;BME280;24974;54.444;18.560;2023-04-28T07:41:20;101656.38;;;11.96;38.21
28797;BME280;24974;54.444;18.560;2023-04-28T07:43:51;101663.69;;;12.06;37.81
28797;BME280;24974;54.444;18.560;2023-04-28T07:46:22;101664.47;;;11.88;38.14
28797;BME280;24974;54.444;18.560;2023-04-28T07:48:53;101653.34;;;12.17;38.45
28797;BME280;24974;54.444;18.560;2023-04-28T07:51:24;101653.19;;;12.27;38.42
28797;BME280;24974;54.444;18.560;2023-04-28T07:53:55;101656.94;;;12.36;38.54
28797;BME280;24974;54.444;18.560;2023-04-28T07:56:26;101651.16;;;13.22;37.27
28797;BME280;24974;54.444;18.560;2023-04-28T07:58:57;101651.88;;;12.95;37.26
28797;BME280;24974;54.444;18.560;2023-04-28T08:01:28;101636.66;;;12.65;37.03
28797;BME280;24974;54.444;18.560;2023-04-28T08:03:59;101650.88;;;12.34;36.59
28797;BME280;24974;54.444;18.560;2023-04-28T08:06:30;101646.44;;;12.38;35.87
28797;BME280;24974;54.444;18.560;2023-04-28T08:09:03;101644.03;;;13.34;34.69
28797;BME280;24974;54.444;18.560;2023-04-28T08:11:35;101641.06;;;13.86;33.26
28797;BME280;24974;54.444;18.560;2023-04-28T08:14:06;101646.09;;;13.42;34.82
28797;BME280;24974;54.444;18.560;2023-04-28T08:16:37;101647.09;;;13.00;34.02
28797;BME280;24974;54.444;18.560;2023-04-28T08:19:10;101649.31;;;12.84;34.86
28797;BME280;24974;54.444;18.560;2023-04-28T08:21:41;101645.97;;;12.50;34.59
28797;BME280;24974;54.444;18.560;2023-04-28T08:24:12;101646.78;;;13.02;34.14
28797;BME280;24974;54.444;18.560;2023-04-28T08:26:43;101649.16;;;12.76;34.87
28797;BME280;24974;54.444;18.560;2023-04-28T08:29:14;101653.78;;;12.43;34.57
28797;BME280;24974;54.444;18.560;2023-04-28T08:31:45;101644.28;;;12.54;34.27
28797;BME280;24974;54.444;18.560;2023-04-28T08:34:15;101649.34;;;13.44;32.79
28797;BME280;24974;54.444;18.560;2023-04-28T08:36:46;101651.50;;;13.15;33.72
28797;BME280;24974;54.444;18.560;2023-04-28T08:39:17;101645.28;;;13.09;33.71
28797;BME280;24974;54.444;18.560;2023-04-28T08:41:49;101641.38;;;14.12;32.50
28797;BME280;24974;54.444;18.560;2023-04-28T08:44:21;101630.28;;;14.84;30.68
28797;BME280;24974;54.444;18.560;2023-04-28T08:46:55;101629.31;;;14.30;31.05
28797;BME280;24974;54.444;18.560;2023-04-28T08:49:33;101630.94;;;13.54;32.18
28797;BME280;24974;54.444;18.560;2023-04-28T08:52:10;101626.97;;;13.32;32.55
28797;BME280;24974;54.444;18.560;2023-04-28T08:54:43;101625.63;;;13.71;32.49
28797;BME280;24974;54.444;18.560;2023-04-28T08:57:14;101637.28;;;13.40;32.80
28797;BME280;24974;54.444;18.560;2023-04-28T08:59:46;101629.50;;;13.70;32.48
28797;BME280;24974;54.444;18.560;2023-04-28T09:02:17;101628.59;;;13.33;33.14
28797;BME280;24974;54.444;18.560;2023-04-28T09:04:49;101630.63;;;13.69;32.24
28797;BME280;24974;54.444;18.560;2023-04-28T09:07:19;101641.97;;;13.95;32.06
28797;BME280;24974;54.444;18.560;2023-04-28T09:12:53;101627.97;;;13.91;31.42
28797;BME280;24974;54.444;18.560;2023-04-28T09:15:35;101626.00;;;14.42;30.47
28797;BME280;24974;54.444;18.560;2023-04-28T09:18:07;101625.53;;;13.49;31.52
28797;BME280;24974;54.444;18.560;2023-04-28T09:20:44;101622.47;;;14.64;30.79
28797;BME280;24974;54.444;18.560;2023-04-28T09:23:19;101623.25;;;14.06;32.11
28797;BME280;24974;54.444;18.560;2023-04-28T09:28:31;101630.13;;;13.81;32.51
28797;BME280;24974;54.444;18.560;2023-04-28T09:31:02;101619.94;;;13.07;33.37
28797;BME280;24974;54.444;18.560;2023-04-28T09:33:33;101614.88;;;13.28;33.56
28797;BME280;24974;54.444;18.560;2023-04-28T09:36:04;101624.28;;;13.55;33.45
28797;BME280;24974;54.444;18.560;2023-04-28T09:38:42;101624.63;;;13.39;33.76
28797;BME280;24974;54.444;18.560;2023-04-28T09:41:13;101624.66;;;14.03;32.79
28797;BME280;24974;54.444;18.560;2023-04-28T09:43:44;101613.41;;;14.13;32.83
28797;BME280;24974;54.444;18.560;2023-04-28T09:46:27;101615.59;;;14.25;32.82
28797;BME280;24974;54.444;18.560;2023-04-28T09:49:00;101624.69;;;13.62;33.88
28797;BME280;24974;54.444;18.560;2023-04-28T09:51:31;101623.72;;;13.11;34.86
28797;BME280;24974;54.444;18.560;2023-04-28T09:54:04;101621.03;;;13.80;33.45
28797;BME280;24974;54.444;18.560;2023-04-28T09:56:35;101614.59;;;13.43;33.22
28797;BME280;24974;54.444;18.560;2023-04-28T09:59:08;101615.81;;;13.51;32.74
28797;BME280;24974;54.444;18.560;2023-04-28T10:01:40;101616.88;;;14.55;30.49
28797;BME280;24974;54.444;18.560;2023-04-28T10:04:11;101610.28;;;14.65;29.75
28797;BME280;24974;54.444;18.560;2023-04-28T10:06:43;101602.03;;;15.27;28.59
28797;BME280;24974;54.444;18.560;2023-04-28T10:09:14;101593.66;;;16.23;27.25
28797;BME280;24974;54.444;18.560;2023-04-28T10:11:47;101592.28;;;17.84;25.68
28797;BME280;24974;54.444;18.560;2023-04-28T10:14:19;101594.91;;;17.42;26.08
28797;BME280;24974;54.444;18.560;2023-04-28T10:16:50;101585.97;;;16.46;27.10
28797;BME280;24974;54.444;18.560;2023-04-28T10:19:24;101595.91;;;15.47;28.44
28797;BME280;24974;54.444;18.560;2023-04-28T10:25:35;101594.81;;;14.64;29.93
28797;BME280;24974;54.444;18.560;2023-04-28T10:27:48;101588.97;;;15.27;29.73
28797;BME280;24974;54.444;18.560;2023-04-28T10:30:21;101591.72;;;14.65;31.11
28797;BME280;24974;54.444;18.560;2023-04-28T10:35:44;101591.31;;;13.99;32.34
28797;BME280;24974;54.444;18.560;2023-04-28T10:38:17;101597.69;;;14.59;32.22
28797;BME280;24974;54.444;18.560;2023-04-28T10:40:50;101592.31;;;14.40;31.63
28797;BME280;24974;54.444;18.560;2023-04-28T10:56:17;101604.16;;;14.18;31.75
28797;BME280;24974;54.444;18.560;2023-04-28T10:58:52;101593.53;;;14.92;30.56
28797;BME280;24974;54.444;18.560;2023-04-28T11:01:28;101595.72;;;14.81;30.85
28797;BME280;24974;54.444;18.560;2023-04-28T11:04:07;101592.03;;;13.91;31.86
28797;BME280;24974;54.444;18.560;2023-04-28T11:06:46;101593.28;;;14.80;31.14
28797;BME280;24974;54.444;18.560;2023-04-28T11:14:33;101579.59;;;14.16;31.37
28797;BME280;24974;54.444;18.560;2023-04-28T11:17:06;101585.81;;;15.51;29.84
28797;BME280;24974;54.444;18.560;2023-04-28T11:19:42;101580.66;;;15.19;30.47
28797;BME280;24974;54.444;18.560;2023-04-28T11:22:21;101577.16;;;16.01;30.10
28797;BME280;24974;54.444;18.560;2023-04-28T11:24:57;101584.81;;;15.95;29.40
28797;BME280;24974;54.444;18.560;2023-04-28T11:27:30;101584.19;;;15.10;29.94
28797;BME280;24974;54.444;18.560;2023-04-28T11:30:02;101580.41;;;16.03;29.26
28797;BME280;24974;54.444;18.560;2023-04-28T11:32:35;101581.81;;;15.66;29.01
28797;BME280;24974;54.444;18.560;2023-04-28T11:35:06;101582.41;;;15.54;29.89
28797;BME280;24974;54.444;18.560;2023-04-28T11:37:39;101580.81;;;17.18;27.64
28797;BME280;24974;54.444;18.560;2023-04-28T11:40:11;101576.19;;;17.22;27.07
28797;BME280;24974;54.444;18.560;2023-04-28T11:42:49;101576.81;;;17.66;27.13
28797;BME280;24974;54.444;18.560;2023-04-28T11:45:20;101568.06;;;17.84;26.76
28797;BME280;24974;54.444;18.560;2023-04-28T11:47:50;101565.69;;;17.36;26.02
28797;BME280;24974;54.444;18.560;2023-04-28T11:50:35;101569.97;;;17.93;25.21
28797;BME280;24974;54.444;18.560;2023-04-28T11:53:06;101571.25;;;17.66;25.96
28797;BME280;24974;54.444;18.560;2023-04-28T11:55:37;101571.13;;;15.99;26.87
28797;BME280;24974;54.444;18.560;2023-04-28T11:58:19;101568.53;;;16.37;27.99
28797;BME280;24974;54.444;18.560;2023-04-28T12:01:09;101561.22;;;17.05;25.85
28797;BME280;24974;54.444;18.560;2023-04-28T12:03:47;101559.06;;;17.20;25.01
28797;BME280;24974;54.444;18.560;2023-04-28T12:06:17;101566.38;;;17.92;24.68
28797;BME280;24974;54.444;18.560;2023-04-28T12:08:49;101567.72;;;17.86;25.50
28797;BME280;24974;54.444;18.560;2023-04-28T12:11:22;101559.72;;;17.84;24.95
28797;BME280;24974;54.444;18.560;2023-04-28T12:14:06;101550.47;;;18.88;24.25
28797;BME280;24974;54.444;18.560;2023-04-28T12:16:41;101559.41;;;18.07;24.49
28797;BME280;24974;54.444;18.560;2023-04-28T12:19:13;101559.03;;;18.83;23.64
28797;BME280;24974;54.444;18.560;2023-04-28T12:22:00;101551.44;;;19.78;22.56
28797;BME280;24974;54.444;18.560;2023-04-28T12:24:32;101546.22;;;19.40;22.27
28797;BME280;24974;54.444;18.560;2023-04-28T12:27:31;101546.44;;;19.47;21.71
28797;BME280;24974;54.444;18.560;2023-04-28T12:30:02;101541.97;;;20.35;21.34
28797;BME280;24974;54.444;18.560;2023-04-28T12:32:37;101551.91;;;19.80;21.09
28797;BME280;24974;54.444;18.560;2023-04-28T12:35:13;101550.97;;;21.16;22.36
28797;BME280;24974;54.444;18.560;2023-04-28T12:37:44;101557.13;;;21.53;25.70
28797;BME280;24974;54.444;18.560;2023-04-28T12:40:15;101553.53;;;21.88;25.06
28797;BME280;24974;54.444;18.560;2023-04-28T12:42:45;101553.81;;;22.99;23.39
28797;BME280;24974;54.444;18.560;2023-04-28T12:45:16;101549.44;;;22.01;26.09
28797;BME280;24974;54.444;18.560;2023-04-28T12:47:47;101558.22;;;22.19;27.19
28797;BME280;24974;54.444;18.560;2023-04-28T12:50:18;101566.91;;;20.28;32.09
28797;BME280;24974;54.444;18.560;2023-04-28T12:52:49;101569.94;;;19.34;34.91
28797;BME280;24974;54.444;18.560;2023-04-28T12:55:20;101566.16;;;18.39;36.50
28797;BME280;24974;54.444;18.560;2023-04-28T12:57:51;101555.50;;;19.56;35.48
28797;BME280;24974;54.444;18.560;2023-04-28T13:00:22;101549.72;;;19.37;35.45
28797;BME280;24974;54.444;18.560;2023-04-28T13:02:53;101556.09;;;19.37;35.63
28797;BME280;24974;54.444;18.560;2023-04-28T13:05:23;101548.75;;;18.63;37.07
28797;BME280;24974;54.444;18.560;2023-04-28T13:07:54;101548.81;;;18.21;38.33
28797;BME280;24974;54.444;18.560;2023-04-28T13:10:25;101557.81;;;18.18;38.57
28797;BME280;24974;54.444;18.560;2023-04-28T13:12:56;101554.88;;;18.89;37.36
28797;BME280;24974;54.444;18.560;2023-04-28T13:15:27;101549.72;;;19.37;36.47
28797;BME280;24974;54.444;18.560;2023-04-28T13:17:59;101546.72;;;18.84;36.90
28797;BME280;24974;54.444;18.560;2023-04-28T13:20:30;101541.59;;;18.74;36.16
28797;BME280;24974;54.444;18.560;2023-04-28T13:23:01;101536.84;;;17.20;39.07
28797;BME280;24974;54.444;18.560;2023-04-28T13:25:32;101543.47;;;16.89;39.82
28797;BME280;24974;54.444;18.560;2023-04-28T13:28:02;101545.19;;;18.41;37.73
28797;BME280;24974;54.444;18.560;2023-04-28T13:30:33;101549.50;;;18.84;36.35
28797;BME280;24974;54.444;18.560;2023-04-28T13:33:04;101552.69;;;18.62;36.80
28797;BME280;24974;54.444;18.560;2023-04-28T13:35:35;101546.88;;;18.34;36.97
28797;BME280;24974;54.444;18.560;2023-04-28T13:38:06;101541.28;;;18.88;36.08
28797;BME280;24974;54.444;18.560;2023-04-28T13:40:37;101531.47;;;18.36;36.21
28797;BME280;24974;54.444;18.560;2023-04-28T13:43:08;101537.31;;;17.51;37.95
28797;BME280;24974;54.444;18.560;2023-04-28T13:45:38;101536.84;;;17.20;38.85
28797;BME280;24974;54.444;18.560;2023-04-28T13:48:09;101532.16;;;16.30;41.24
28797;BME280;24974;54.444;18.560;2023-04-28T13:50:41;101526.41;;;16.27;41.09
28797;BME280;24974;54.444;18.560;2023-04-28T13:53:12;101526.56;;;15.70;42.47
28797;BME280;24974;54.444;18.560;2023-04-28T13:55:43;101532.38;;;15.59;42.76
28797;BME280;24974;54.444;18.560;2023-04-28T13:58:14;101524.06;;;15.59;42.45
28797;BME280;24974;54.444;18.560;2023-04-28T14:00:45;101524.31;;;15.89;41.23
28797;BME280;24974;54.444;18.560;2023-04-28T14:03:16;101526.81;;;15.42;42.06
28797;BME280;24974;54.444;18.560;2023-04-28T14:05:48;101523.63;;;15.66;42.13
28797;BME280;24974;54.444;18.560;2023-04-28T14:08:19;101523.81;;;15.87;41.91
28797;BME280;24974;54.444;18.560;2023-04-28T14:10:50;101514.69;;;15.95;42.06
28797;BME280;24974;54.444;18.560;2023-04-28T14:13:21;101512.72;;;16.39;42.09
28797;BME280;24974;54.444;18.560;2023-04-28T14:15:54;101516.06;;;16.88;41.14
28797;BME280;24974;54.444;18.560;2023-04-28T14:18:24;101506.28;;;16.64;41.20
28797;BME280;24974;54.444;18.560;2023-04-28T14:20:55;101516.19;;;17.29;39.87
28797;BME280;24974;54.444;18.560;2023-04-28T14:23:26;101511.41;;;17.39;39.33
28797;BME280;24974;54.444;18.560;2023-04-28T14:25:58;101510.25;;;17.10;40.09
28797;BME280;24974;54.444;18.560;2023-04-28T14:28:28;101502.94;;;17.35;39.57
28797;BME280;24974;54.444;18.560;2023-04-28T14:31:02;101506.31;;;16.56;40.08
28797;BME280;24974;54.444;18.560;2023-04-28T14:33:35;101502.72;;;16.72;40.28
28797;BME280;24974;54.444;18.560;2023-04-28T14:36:06;101506.34;;;15.86;42.33
28797;BME280;24974;54.444;18.560;2023-04-28T14:38:37;101501.28;;;15.62;42.84
28797;BME280;24974;54.444;18.560;2023-04-28T14:41:08;101499.19;;;15.68;42.05
28797;BME280;24974;54.444;18.560;2023-04-28T14:43:38;101493.38;;;15.38;43.18
28797;BME280;24974;54.444;18.560;2023-04-28T14:46:10;101488.47;;;15.27;43.45
28797;BME280;24974;54.444;18.560;2023-04-28T14:48:40;101482.88;;;15.01;43.80
28797;BME280;24974;54.444;18.560;2023-04-28T14:51:12;101485.47;;;15.06;43.61
28797;BME280;24974;54.444;18.560;2023-04-28T14:53:42;101485.50;;;15.23;43.70
28797;BME280;24974;54.444;18.560;2023-04-28T14:56:13;101487.97;;;15.16;44.46
28797;BME280;24974;54.444;18.560;2023-04-28T14:58:44;101483.34;;;15.03;45.95
28797;BME280;24974;54.444;18.560;2023-04-28T15:01:15;101489.28;;;15.19;44.89
28797;BME280;24974;54.444;18.560;2023-04-28T15:03:46;101489.44;;;15.22;44.62
28797;BME280;24974;54.444;18.560;2023-04-28T15:06:17;101483.72;;;15.10;44.27
28797;BME280;24974;54.444;18.560;2023-04-28T15:08:48;101482.84;;;14.61;45.28
28797;BME280;24974;54.444;18.560;2023-04-28T15:11:19;101486.47;;;14.70;44.88
28797;BME280;24974;54.444;18.560;2023-04-28T15:13:50;101481.75;;;14.71;45.29
28797;BME280;24974;54.444;18.560;2023-04-28T15:16:21;101489.75;;;14.27;46.36
28797;BME280;24974;54.444;18.560;2023-04-28T15:18:51;101476.28;;;14.35;45.69
28797;BME280;24974;54.444;18.560;2023-04-28T15:21:23;101476.66;;;14.42;44.02
28797;BME280;24974;54.444;18.560;2023-04-28T15:23:54;101483.66;;;14.62;43.20
28797;BME280;24974;54.444;18.560;2023-04-28T15:26:25;101477.59;;;14.91;41.92
28797;BME280;24974;54.444;18.560;2023-04-28T15:28:57;101477.09;;;15.37;40.66
28797;BME280;24974;54.444;18.560;2023-04-28T15:31:28;101475.56;;;15.14;40.04
28797;BME280;24974;54.444;18.560;2023-04-28T15:33:59;101475.31;;;15.41;39.28
28797;BME280;24974;54.444;18.560;2023-04-28T15:36:30;101479.78;;;16.03;38.21
28797;BME280;24974;54.444;18.560;2023-04-28T15:39:02;101477.56;;;15.39;39.12
28797;BME280;24974;54.444;18.560;2023-04-28T15:41:33;101480.41;;;15.56;39.23
28797;BME280;24974;54.444;18.560;2023-04-28T15:44:05;101475.53;;;15.79;39.33
28797;BME280;24974;54.444;18.560;2023-04-28T15:46:36;101476.69;;;15.95;39.21
28797;BME280;24974;54.444;18.560;2023-04-28T15:49:07;101471.81;;;15.75;39.59
28797;BME280;24974;54.444;18.560;2023-04-28T15:51:38;101476.03;;;16.16;39.30
28797;BME280;24974;54.444;18.560;2023-04-28T15:54:09;101466.94;;;15.81;39.59
28797;BME280;24974;54.444;18.560;2023-04-28T15:56:40;101474.72;;;15.96;40.07
28797;BME280;24974;54.444;18.560;2023-04-28T15:59:10;101467.31;;;16.43;39.53
28797;BME280;24974;54.444;18.560;2023-04-28T16:01:44;101470.91;;;16.53;39.48
28797;BME280;24974;54.444;18.560;2023-04-28T16:04:15;101480.09;;;16.91;39.40
28797;BME280;24974;54.444;18.560;2023-04-28T16:06:46;101471.56;;;16.49;40.04
28797;BME280;24974;54.444;18.560;2023-04-28T16:09:17;101474.53;;;16.27;40.82
28797;BME280;24974;54.444;18.560;2023-04-28T16:11:48;101478.47;;;16.17;41.11
28797;BME280;24974;54.444;18.560;2023-04-28T16:14:19;101472.41;;;16.33;40.67
28797;BME280;24974;54.444;18.560;2023-04-28T16:16:49;101467.88;;;16.02;41.57
28797;BME280;24974;54.444;18.560;2023-04-28T16:19:20;101457.13;;;15.83;42.34
28797;BME280;24974;54.444;18.560;2023-04-28T16:21:51;101469.19;;;15.96;42.06
28797;BME280;24974;54.444;18.560;2023-04-28T16:24:22;101469.75;;;16.62;40.49
28797;BME280;24974;54.444;18.560;2023-04-28T16:26:53;101467.03;;;16.92;40.42
28797;BME280;24974;54.444;18.560;2023-04-28T16:29:24;101465.88;;;16.20;41.70
28797;BME280;24974;54.444;18.560;2023-04-28T16:31:55;101465.78;;;15.64;43.35
28797;BME280;24974;54.444;18.560;2023-04-28T16:34:26;101462.72;;;15.18;44.86
28797;BME280;24974;54.444;18.560;2023-04-28T16:37:00;101460.03;;;14.55;46.73
28797;BME280;24974;54.444;18.560;2023-04-28T16:39:32;101460.25;;;14.68;46.70
28797;BME280;24974;54.444;18.560;2023-04-28T16:42:03;101460.97;;;14.91;46.15
28797;BME280;24974;54.444;18.560;2023-04-28T16:44:34;101467.25;;;14.74;45.93
28797;BME280;24974;54.444;18.560;2023-04-28T16:47:06;101462.75;;;14.78;46.18
28797;BME280;24974;54.444;18.560;2023-04-28T16:49:37;101454.13;;;14.48;46.67
28797;BME280;24974;54.444;18.560;2023-04-28T16:52:08;101455.75;;;14.27;47.01
28797;BME280;24974;54.444;18.560;2023-04-28T16:54:38;101456.59;;;14.05;46.59
28797;BME280;24974;54.444;18.560;2023-04-28T16:57:09;101454.50;;;14.55;46.17
28797;BME280;24974;54.444;18.560;2023-04-28T16:59:40;101456.97;;;14.66;45.75
28797;BME280;24974;54.444;18.560;2023-04-28T17:02:11;101458.63;;;14.44;45.65
28797;BME280;24974;54.444;18.560;2023-04-28T17:04:42;101456.56;;;14.50;45.74
28797;BME280;24974;54.444;18.560;2023-04-28T17:07:12;101447.00;;;14.34;45.28
28797;BME280;24974;54.444;18.560;2023-04-28T17:09:43;101454.53;;;14.64;44.40